Terminal Aerodrome Forecast
Issued by NWS

Home | Current Version | Previous Version | Text Only | Print | Product List | Glossary On
Versions: 1 2 3 4 5 6 7 8 9 10 11 12
313
FTUS42 TJSJ 272321
TAFJMZ
TAF
TJMZ 272321Z 2800/2824 08010KT P6SM FEW030
     FM281530 08012KT P6SM SCT025 BKN040
     FM282300 VRB05KT P6SM FEW060
      AMD NOT SKED TIL 281500=

USA.gov is the U.S. government's official web portal to all federal, state and local government web resources and services.